createdAt,value
2018-06-02T00:00:43.931Z,0.00
2018-06-02T00:01:40.584Z,0.00
2018-06-02T00:02:40.420Z,0.00
2018-06-02T00:03:40.390Z,0.00
2018-06-02T00:04:40.249Z,0.00
2018-06-02T00:05:40.226Z,0.00
2018-06-02T00:06:40.104Z,0.00
2018-06-02T00:07:40.104Z,0.00
2018-06-02T00:08:39.937Z,0.00
2018-06-02T00:11:21.882Z,0.00
2018-06-02T00:12:21.809Z,0.00
2018-06-02T00:13:21.651Z,0.00
2018-06-02T00:14:21.616Z,0.00
2018-06-02T00:15:21.493Z,0.00
2018-06-02T00:16:21.568Z,0.00
2018-06-02T00:17:21.332Z,0.00
2018-06-02T00:20:03.308Z,0.00
2018-06-02T00:21:03.366Z,0.00
2018-06-02T00:22:03.154Z,0.00
2018-06-02T00:23:03.141Z,0.00
2018-06-02T00:24:02.984Z,0.00
2018-06-02T00:25:02.945Z,0.00
2018-06-02T00:26:02.852Z,0.00
2018-06-02T00:27:02.868Z,0.00
2018-06-02T00:28:02.664Z,0.00
2018-06-02T00:29:02.685Z,0.00
2018-06-02T00:30:02.518Z,0.00
2018-06-02T00:31:02.519Z,0.00
2018-06-02T00:32:02.357Z,0.00
2018-06-02T00:33:02.392Z,0.00
2018-06-02T00:34:02.200Z,0.00
2018-06-02T00:35:02.197Z,0.00
2018-06-02T00:36:02.073Z,0.00
2018-06-02T00:37:02.016Z,0.00
2018-06-02T00:38:01.884Z,0.00
2018-06-02T00:39:01.916Z,0.00
2018-06-02T00:40:01.739Z,0.00
2018-06-02T00:41:01.722Z,0.00
2018-06-02T00:42:01.587Z,0.00
2018-06-02T00:44:43.805Z,0.00
2018-06-02T00:45:43.838Z,0.00
2018-06-02T00:46:46.945Z,0.00
2018-06-02T00:47:43.676Z,0.00
2018-06-02T00:48:43.485Z,0.00
2018-06-02T00:49:43.466Z,0.00
2018-06-02T00:50:43.341Z,0.00
2018-06-02T00:51:47.500Z,0.00
2018-06-02T00:52:43.180Z,0.00
2018-06-02T00:55:25.305Z,0.00
2018-06-02T00:56:25.267Z,0.00
2018-06-02T00:57:25.161Z,0.00
2018-06-02T00:58:25.179Z,0.00
2018-06-02T00:59:24.985Z,0.00
2018-06-02T01:00:25.010Z,0.00
2018-06-02T01:01:24.839Z,0.00
2018-06-02T01:02:24.842Z,0.00
2018-06-02T01:03:24.681Z,0.00
2018-06-02T01:04:24.826Z,0.00
2018-06-02T01:05:24.520Z,0.00
2018-06-02T01:06:25.040Z,0.00
2018-06-02T01:07:24.398Z,0.00
2018-06-02T01:10:06.316Z,0.00
2018-06-02T01:11:06.326Z,0.00
2018-06-02T01:12:06.152Z,0.00
2018-06-02T01:13:06.162Z,0.00
2018-06-02T01:14:06.006Z,0.00
2018-06-02T01:15:05.944Z,0.00
2018-06-02T01:16:05.844Z,0.00
2018-06-02T01:17:05.851Z,0.00
2018-06-02T01:18:05.704Z,0.00
2018-06-02T01:19:05.660Z,0.00
2018-06-02T01:20:05.527Z,0.00
2018-06-02T01:21:05.572Z,0.00
2018-06-02T01:22:05.380Z,0.00
2018-06-02T01:23:05.430Z,0.00
2018-06-02T01:24:05.216Z,0.00
2018-06-02T01:25:05.189Z,0.00
2018-06-02T01:26:05.060Z,0.00
2018-06-02T01:28:47.326Z,0.00
2018-06-02T01:29:47.307Z,0.00
2018-06-02T01:30:47.155Z,0.00
2018-06-02T01:31:47.123Z,0.00
2018-06-02T01:32:47.008Z,0.00
2018-06-02T01:33:47.971Z,0.00
2018-06-02T01:34:46.847Z,0.00
2018-06-02T01:37:28.823Z,0.00
2018-06-02T01:38:28.860Z,0.00
2018-06-02T01:39:28.693Z,0.00
2018-06-02T01:40:28.640Z,0.00
2018-06-02T01:41:28.495Z,0.00
2018-06-02T01:42:28.539Z,0.00
2018-06-02T01:43:28.362Z,0.00
2018-06-02T01:44:29.316Z,0.00
2018-06-02T01:45:28.192Z,0.00
2018-06-02T01:46:28.162Z,0.00
2018-06-02T01:47:28.048Z,0.00
2018-06-02T01:48:28.310Z,0.00
2018-06-02T01:49:27.899Z,0.00
2018-06-02T01:50:28.393Z,0.00
2018-06-02T01:51:27.716Z,0.00
2018-06-02T01:54:12.954Z,0.00
2018-06-02T01:55:09.791Z,0.00
2018-06-02T01:56:09.660Z,0.00
2018-06-02T01:57:09.704Z,0.00
2018-06-02T01:58:09.501Z,0.00
2018-06-02T01:59:09.455Z,0.00
2018-06-02T02:00:09.355Z,0.00
2018-06-02T02:01:09.323Z,0.00
2018-06-02T02:02:09.189Z,0.00
2018-06-02T02:03:09.234Z,0.00
2018-06-02T02:04:09.058Z,0.00
2018-06-02T02:05:09.069Z,0.00
2018-06-02T02:06:08.893Z,0.00
2018-06-02T02:07:08.857Z,0.00
2018-06-02T02:08:08.718Z,0.00
2018-06-02T02:10:50.857Z,0.00
2018-06-02T02:11:50.870Z,0.00
2018-06-02T02:12:50.671Z,0.00
2018-06-02T02:13:50.665Z,0.00
2018-06-02T02:14:50.550Z,0.00
2018-06-02T02:17:32.335Z,0.00
2018-06-02T02:18:32.386Z,0.00
2018-06-02T02:19:32.167Z,0.00
2018-06-02T02:20:32.226Z,0.00
2018-06-02T02:21:32.023Z,0.00
2018-06-02T02:22:31.994Z,0.00
2018-06-02T02:23:31.861Z,0.00
2018-06-02T02:24:31.900Z,0.00
2018-06-02T02:25:31.699Z,0.00
2018-06-02T02:26:32.788Z,0.00
2018-06-02T02:27:31.536Z,0.00
2018-06-02T02:28:31.520Z,0.00
2018-06-02T02:29:31.399Z,0.00
2018-06-02T02:30:31.569Z,0.00
2018-06-02T02:31:31.239Z,0.00
2018-06-02T02:32:31.754Z,0.00
2018-06-02T02:33:31.108Z,0.00
2018-06-02T02:36:13.347Z,0.00
2018-06-02T02:37:13.346Z,0.00
2018-06-02T02:38:13.171Z,0.00
2018-06-02T02:39:13.161Z,0.00
2018-06-02T02:40:13.026Z,0.00
2018-06-02T02:41:12.998Z,0.00
2018-06-02T02:42:12.875Z,0.00
2018-06-02T02:43:12.875Z,0.00
2018-06-02T02:44:12.709Z,0.00
2018-06-02T02:45:12.708Z,0.00
2018-06-02T02:46:12.817Z,0.00
2018-06-02T02:47:12.588Z,0.00
2018-06-02T02:48:12.392Z,0.00
2018-06-02T02:50:54.336Z,0.00
2018-06-02T02:51:57.516Z,4.00
2018-06-02T02:52:54.189Z,4.00
2018-06-02T02:53:54.206Z,4.00
2018-06-02T02:54:54.033Z,4.00
2018-06-02T02:57:35.867Z,4.00
2018-06-02T02:58:35.810Z,8.00
2018-06-02T02:59:35.680Z,4.00
2018-06-02T03:00:35.720Z,8.00
2018-06-02T03:01:35.549Z,8.00
2018-06-02T03:02:35.531Z,8.00
2018-06-02T03:03:35.368Z,8.00
2018-06-02T03:06:17.365Z,12.00
2018-06-02T03:07:17.333Z,12.00
2018-06-02T03:08:17.179Z,16.00
2018-06-02T03:09:17.150Z,16.00
2018-06-02T03:10:17.035Z,16.00
2018-06-02T03:11:18.110Z,24.00
2018-06-02T03:12:16.869Z,24.00
2018-06-02T03:13:16.867Z,24.00
2018-06-02T03:14:16.712Z,32.00
2018-06-02T03:15:16.669Z,40.00
2018-06-02T03:16:16.555Z,40.00
2018-06-02T03:17:20.096Z,52.00
2018-06-02T03:18:16.402Z,64.00
2018-06-02T03:19:16.401Z,68.00
2018-06-02T03:20:16.243Z,64.00
2018-06-02T03:22:58.378Z,92.00
2018-06-02T03:23:58.295Z,92.00
2018-06-02T03:24:58.188Z,92.00
2018-06-02T03:27:40.368Z,104.00
2018-06-02T03:28:40.303Z,108.00
2018-06-02T03:29:40.187Z,108.00
2018-06-02T03:30:40.231Z,112.00
2018-06-02T03:31:40.032Z,116.00
2018-06-02T03:32:40.056Z,120.00
2018-06-02T03:33:39.881Z,128.00
2018-06-02T03:36:21.849Z,156.00
2018-06-02T03:37:21.973Z,164.00
2018-06-02T03:38:21.708Z,168.00
2018-06-02T03:39:21.637Z,168.00
2018-06-02T03:40:21.560Z,180.00
2018-06-02T03:41:21.554Z,180.00
2018-06-02T03:42:21.380Z,208.00
2018-06-02T03:43:21.390Z,212.00
2018-06-02T03:44:21.222Z,240.00
2018-06-02T03:45:21.276Z,220.00
2018-06-02T03:46:21.068Z,268.00
2018-06-02T03:47:21.092Z,284.00
2018-06-02T03:48:20.937Z,288.00
2018-06-02T03:51:02.865Z,368.00
2018-06-02T03:52:02.892Z,364.00
2018-06-02T03:53:04.487Z,348.00
2018-06-02T03:55:44.879Z,392.00
2018-06-02T03:56:44.908Z,376.00
2018-06-02T03:57:44.688Z,388.00
2018-06-02T03:58:44.739Z,424.00
2018-06-02T03:59:44.539Z,428.00
2018-06-02T04:00:44.532Z,436.00
2018-06-02T04:01:44.396Z,468.00
2018-06-02T04:02:44.419Z,556.00
2018-06-02T04:03:44.255Z,592.00
2018-06-02T04:06:26.355Z,484.00
2018-06-02T04:07:26.331Z,508.00
2018-06-02T04:08:26.230Z,492.00
2018-06-02T04:09:26.243Z,496.00
2018-06-02T04:10:26.041Z,480.00
2018-06-02T04:11:26.057Z,488.00
2018-06-02T04:12:25.893Z,472.00
2018-06-02T04:13:26.938Z,456.00
2018-06-02T04:14:25.721Z,496.00
2018-06-02T04:15:25.774Z,600.00
2018-06-02T04:16:25.581Z,624.00
2018-06-02T04:17:25.578Z,528.00
2018-06-02T04:18:25.422Z,524.00
2018-06-02T04:19:25.449Z,608.00
2018-06-02T04:20:25.269Z,816.00
2018-06-02T04:21:25.295Z,904.00
2018-06-02T04:22:25.111Z,820.00
2018-06-02T04:25:07.425Z,568.00
2018-06-02T04:26:07.417Z,524.00
2018-06-02T04:27:07.205Z,560.00
2018-06-02T04:28:07.222Z,740.00
2018-06-02T04:29:07.057Z,844.00
2018-06-02T04:30:11.069Z,896.00
2018-06-02T04:31:06.905Z,900.00
2018-06-02T04:32:06.941Z,956.00
2018-06-02T04:33:06.737Z,1072.00
2018-06-02T04:34:06.742Z,960.00
2018-06-02T04:35:06.602Z,840.00
2018-06-02T04:36:06.561Z,912.00
2018-06-02T04:37:06.427Z,856.00
2018-06-02T04:39:48.383Z,788.00
2018-06-02T04:40:48.361Z,760.00
2018-06-02T04:41:48.221Z,924.00
2018-06-02T04:44:30.405Z,940.00
2018-06-02T04:47:16.445Z,968.00
2018-06-02T04:48:16.365Z,960.00
2018-06-02T04:49:16.218Z,1128.00
2018-06-02T04:50:16.196Z,1280.00
2018-06-02T04:51:16.078Z,1364.00
2018-06-02T04:52:16.127Z,1224.00
2018-06-02T04:53:15.907Z,1460.00
2018-06-02T04:54:15.968Z,1996.00
2018-06-02T04:55:15.843Z,2232.00
2018-06-02T04:56:15.701Z,2268.00
2018-06-02T04:57:15.592Z,2120.00
2018-06-02T04:58:15.656Z,2284.00
2018-06-02T04:59:15.429Z,2412.00
2018-06-02T05:00:15.459Z,2320.00
2018-06-02T05:01:15.326Z,2104.00
2018-06-02T05:02:15.287Z,2336.00
2018-06-02T05:03:15.132Z,2464.00
2018-06-02T05:04:15.136Z,2344.00
2018-06-02T05:05:14.997Z,2080.00
2018-06-02T05:06:14.952Z,1904.00
2018-06-02T05:07:14.817Z,1908.00
2018-06-02T05:08:14.865Z,1908.00
2018-06-02T05:09:14.652Z,2120.00
2018-06-02T05:10:14.745Z,2052.00
2018-06-02T05:11:14.496Z,1944.00
2018-06-02T05:13:56.383Z,2084.00
2018-06-02T05:14:56.378Z,1716.00
2018-06-02T05:15:56.246Z,1728.00
2018-06-02T05:18:38.376Z,1664.00
2018-06-02T05:19:38.378Z,1776.00
2018-06-02T05:20:38.242Z,1796.00
2018-06-02T05:21:38.196Z,1680.00
2018-06-02T05:22:38.066Z,1672.00
2018-06-02T05:23:38.106Z,1656.00
2018-06-02T05:24:37.914Z,1804.00
2018-06-02T05:25:38.961Z,1688.00
2018-06-02T05:26:37.912Z,1444.00
2018-06-02T05:27:37.725Z,1696.00
2018-06-02T05:28:37.598Z,1816.00
2018-06-02T05:29:37.527Z,1508.00
2018-06-02T05:30:37.444Z,1136.00
2018-06-02T05:31:37.470Z,1120.00
2018-06-02T05:32:37.288Z,1096.00
2018-06-02T05:33:37.261Z,1276.00
2018-06-02T05:34:37.144Z,1104.00
2018-06-02T05:35:37.155Z,976.00
2018-06-02T05:36:36.998Z,968.00
2018-06-02T05:37:36.970Z,1060.00
2018-06-02T05:38:36.817Z,996.00
2018-06-02T05:39:36.791Z,976.00
2018-06-02T05:40:36.806Z,1072.00
2018-06-02T05:41:36.726Z,1080.00
2018-06-02T05:42:36.507Z,1088.00
2018-06-02T05:43:36.491Z,1036.00
2018-06-02T05:44:36.365Z,1088.00
2018-06-02T05:45:36.413Z,1640.00
2018-06-02T05:46:36.224Z,1892.00
2018-06-02T05:47:36.222Z,1656.00
2018-06-02T05:48:36.037Z,1704.00
2018-06-02T05:49:36.024Z,1940.00
2018-06-02T05:50:35.913Z,1720.00
2018-06-02T05:51:36.891Z,1524.00
2018-06-02T05:52:35.780Z,1444.00
2018-06-02T05:53:35.871Z,1428.00
2018-06-02T05:54:35.663Z,1624.00
2018-06-02T05:55:35.545Z,1584.00
2018-06-02T05:56:35.439Z,1572.00
2018-06-02T05:57:35.504Z,2032.00
2018-06-02T05:58:35.329Z,1612.00
2018-06-02T05:59:35.265Z,1708.00
2018-06-02T06:00:35.109Z,1684.00
2018-06-02T06:03:17.486Z,2436.00
2018-06-02T06:05:59.399Z,1856.00
2018-06-02T06:07:00.436Z,3120.00
2018-06-02T06:07:59.260Z,3560.00
2018-06-02T06:08:59.190Z,4440.00
2018-06-02T06:09:59.089Z,3708.00
2018-06-02T06:10:59.001Z,2920.00
2018-06-02T06:11:58.939Z,3104.00
2018-06-02T06:12:58.897Z,2424.00
2018-06-02T06:13:58.770Z,3160.00
2018-06-02T06:16:40.904Z,2768.00
2018-06-02T06:17:40.952Z,3252.00
2018-06-02T06:18:40.749Z,3184.00
2018-06-02T06:19:40.732Z,3344.00
2018-06-02T06:20:40.643Z,4336.00
2018-06-02T06:21:40.552Z,4808.00
2018-06-02T06:22:40.492Z,5048.00
2018-06-02T06:23:40.493Z,1832.00
2018-06-02T06:24:40.283Z,4644.00
2018-06-02T06:25:40.258Z,4380.00
2018-06-02T06:26:40.115Z,4536.00
2018-06-02T06:27:40.274Z,4748.00
2018-06-02T06:28:40.112Z,3244.00
2018-06-02T06:29:40.013Z,2544.00
2018-06-02T06:30:39.818Z,2436.00
2018-06-02T06:33:22.095Z,2400.00
2018-06-02T06:34:21.893Z,2172.00
2018-06-02T06:35:21.909Z,1608.00
2018-06-02T06:38:03.935Z,2112.00
2018-06-02T06:39:03.998Z,2916.00
2018-06-02T06:40:03.785Z,4024.00
2018-06-02T06:44:28.078Z,3188.00
2018-06-02T06:45:27.896Z,3408.00
2018-06-02T06:48:09.972Z,3260.00
2018-06-02T06:49:09.968Z,3236.00
2018-06-02T06:50:09.810Z,4124.00
2018-06-02T06:52:51.907Z,4764.00
2018-06-02T06:53:53.001Z,5352.00
2018-06-02T06:54:51.761Z,5496.00
2018-06-02T06:55:52.336Z,6100.00
2018-06-02T06:56:51.594Z,5816.00
2018-06-02T06:57:52.521Z,5428.00
2018-06-02T06:58:51.481Z,5080.00
2018-06-02T07:01:33.410Z,5672.00
2018-06-02T07:02:33.428Z,5040.00
2018-06-02T07:03:33.275Z,4828.00
2018-06-02T07:04:33.274Z,6052.00
2018-06-02T07:05:33.094Z,5560.00
2018-06-02T07:06:33.064Z,5772.00
2018-06-02T07:07:32.945Z,5160.00
2018-06-02T07:08:33.000Z,5056.00
2018-06-02T07:09:32.784Z,6000.00
2018-06-02T07:10:32.770Z,5680.00
2018-06-02T07:11:32.633Z,4344.00
2018-06-02T07:14:14.934Z,4888.00
2018-06-02T07:15:14.884Z,4856.00
2018-06-02T07:16:14.756Z,5604.00
2018-06-02T07:17:14.791Z,5540.00
2018-06-02T07:18:14.608Z,4804.00
2018-06-02T07:19:14.624Z,5628.00
2018-06-02T07:20:14.485Z,5016.00
2018-06-02T07:21:14.408Z,5260.00
2018-06-02T07:22:14.303Z,5836.00
2018-06-02T07:24:56.515Z,5020.00
2018-06-02T07:25:56.428Z,5408.00
2018-06-02T07:26:56.268Z,5272.00
2018-06-02T07:27:56.227Z,5836.00
2018-06-02T07:28:56.110Z,6948.00
2018-06-02T07:29:57.098Z,7200.00
2018-06-02T07:30:55.952Z,7136.00
2018-06-02T07:31:55.942Z,7960.00
2018-06-02T07:32:55.799Z,8608.00
2018-06-02T07:35:37.952Z,10192.00
2018-06-02T07:36:37.971Z,11612.00
2018-06-02T07:37:37.779Z,10580.00
2018-06-02T07:40:20.046Z,8640.00
2018-06-02T07:41:19.966Z,6932.00
2018-06-02T07:42:19.776Z,5196.00
2018-06-02T07:45:01.935Z,4352.00
2018-06-02T07:46:01.876Z,5020.00
2018-06-02T07:47:01.778Z,5436.00
2018-06-02T07:48:01.791Z,5008.00
2018-06-02T07:49:01.619Z,4720.00
2018-06-02T07:50:01.681Z,4584.00
2018-06-02T07:51:01.520Z,4820.00
2018-06-02T07:53:43.422Z,6008.00
2018-06-02T07:54:43.405Z,6596.00
2018-06-02T07:55:43.298Z,5944.00
2018-06-02T07:58:25.432Z,5384.00
2018-06-02T07:59:25.416Z,5532.00
2018-06-02T08:00:25.306Z,5888.00
2018-06-02T08:03:07.435Z,5904.00
2018-06-02T08:04:07.447Z,6316.00
2018-06-02T08:05:07.294Z,6084.00
2018-06-02T08:07:49.421Z,7944.00
2018-06-02T08:08:49.451Z,9452.00
2018-06-02T08:09:49.273Z,10904.00
2018-06-02T08:10:49.272Z,12404.00
2018-06-02T08:11:49.123Z,13020.00
2018-06-02T08:12:49.149Z,13932.00
2018-06-02T08:13:48.959Z,15788.00
2018-06-02T08:14:48.963Z,14824.00
2018-06-02T08:15:48.822Z,14928.00
2018-06-02T08:18:30.933Z,10140.00
2018-06-02T08:19:30.997Z,9036.00
2018-06-02T08:20:30.848Z,7884.00
2018-06-02T08:21:30.779Z,7948.00
2018-06-02T08:22:30.645Z,9600.00
2018-06-02T08:25:12.962Z,10328.00
2018-06-02T08:26:12.922Z,9392.00
2018-06-02T08:27:12.789Z,9112.00
2018-06-02T08:28:12.816Z,9252.00
2018-06-02T08:29:12.620Z,8472.00
2018-06-02T08:30:20.131Z,8268.00
2018-06-02T08:31:12.496Z,8384.00
2018-06-02T08:33:54.447Z,8144.00
2018-06-02T08:34:54.414Z,8084.00
2018-06-02T08:35:54.309Z,8708.00
2018-06-02T08:36:54.372Z,9248.00
2018-06-02T08:37:54.133Z,9044.00
2018-06-02T08:38:54.177Z,9060.00
2018-06-02T08:39:53.986Z,10836.00
2018-06-02T08:40:53.938Z,13604.00
2018-06-02T08:41:53.872Z,14928.00
2018-06-02T08:42:53.850Z,13364.00
2018-06-02T08:43:53.683Z,11872.00
2018-06-02T08:44:53.657Z,10900.00
2018-06-02T08:45:53.530Z,10332.00
2018-06-02T08:46:53.523Z,10508.00
2018-06-02T08:47:53.384Z,9976.00
2018-06-02T08:48:53.379Z,8836.00
2018-06-02T08:49:53.204Z,8520.00
2018-06-02T08:50:53.197Z,8052.00
2018-06-02T08:51:56.097Z,7400.00
2018-06-02T08:52:53.098Z,6736.00
2018-06-02T08:53:52.900Z,6592.00
2018-06-02T08:54:52.905Z,6368.00
2018-06-02T08:55:52.751Z,6028.00
2018-06-02T08:58:34.955Z,7152.00
2018-06-02T08:59:34.920Z,6968.00
2018-06-02T09:00:34.785Z,6320.00
2018-06-02T09:01:34.828Z,5852.00
2018-06-02T09:02:34.748Z,5460.00
2018-06-02T09:03:34.579Z,5200.00
2018-06-02T09:04:34.485Z,4984.00
2018-06-02T09:05:34.448Z,5180.00
2018-06-02T09:06:34.404Z,5856.00
2018-06-02T09:07:34.367Z,6688.00
2018-06-02T09:08:34.171Z,6976.00
2018-06-02T09:09:34.168Z,6712.00
2018-06-02T09:10:34.020Z,6744.00
2018-06-02T09:11:33.966Z,6956.00
2018-06-02T09:12:33.883Z,7712.00
2018-06-02T09:13:33.796Z,9076.00
2018-06-02T09:14:33.715Z,10904.00
2018-06-02T09:15:33.705Z,11408.00
2018-06-02T09:16:33.560Z,11696.00
2018-06-02T09:17:34.507Z,12840.00
2018-06-02T09:18:33.408Z,12468.00
2018-06-02T09:19:33.354Z,11068.00
2018-06-02T09:20:33.268Z,9848.00
2018-06-02T09:21:33.188Z,9068.00
2018-06-02T09:22:33.131Z,9436.00
2018-06-02T09:23:33.033Z,10272.00
2018-06-02T09:24:32.944Z,10508.00
2018-06-02T09:25:33.019Z,10204.00
2018-06-02T09:26:32.792Z,13504.00
2018-06-02T09:27:32.749Z,18176.00
2018-06-02T09:28:32.667Z,17024.00
2018-06-02T09:29:32.567Z,14644.00
2018-06-02T09:30:32.478Z,14236.00
2018-06-02T09:31:32.427Z,18176.00
2018-06-02T09:32:32.341Z,16408.00
2018-06-02T09:33:32.324Z,13996.00
2018-06-02T09:34:32.192Z,14328.00
2018-06-02T09:35:32.111Z,17440.00
2018-06-02T09:36:32.038Z,20992.00
2018-06-02T09:37:32.992Z,21728.00
2018-06-02T09:38:31.873Z,21536.00
2018-06-02T09:39:31.833Z,22912.00
2018-06-02T09:40:31.721Z,21312.00
2018-06-02T09:43:13.988Z,23200.00
2018-06-02T09:44:13.963Z,19392.00
2018-06-02T09:45:13.817Z,19072.00
2018-06-02T09:46:13.736Z,24832.00
2018-06-02T09:47:13.654Z,32800.00
2018-06-02T09:48:13.607Z,24000.00
2018-06-02T09:49:13.500Z,20992.00
2018-06-02T09:50:15.443Z,38080.00
2018-06-02T09:51:13.359Z,26944.00
2018-06-02T09:53:55.546Z,31296.00
2018-06-02T09:54:55.454Z,24832.00
2018-06-02T09:55:55.316Z,24608.00
2018-06-02T09:56:55.371Z,40352.00
2018-06-02T09:57:55.179Z,22400.00
2018-06-02T09:58:55.239Z,17280.00
2018-06-02T09:59:55.038Z,14940.00
2018-06-02T10:00:54.984Z,13904.00
2018-06-02T10:01:54.924Z,13160.00
2018-06-02T10:02:54.902Z,13128.00
2018-06-02T10:03:54.746Z,15948.00
2018-06-02T10:04:54.701Z,18112.00
2018-06-02T10:05:54.567Z,15220.00
2018-06-02T10:08:36.489Z,13184.00
2018-06-02T10:09:36.511Z,14956.00
2018-06-02T10:10:36.386Z,13176.00
2018-06-02T10:11:36.316Z,11548.00
2018-06-02T10:12:36.181Z,10176.00
2018-06-02T10:13:36.150Z,8540.00
2018-06-02T10:14:36.038Z,7676.00
2018-06-02T10:15:36.059Z,7812.00
2018-06-02T10:16:35.883Z,9400.00
2018-06-02T10:17:35.847Z,12752.00
2018-06-02T10:18:35.746Z,18784.00
2018-06-02T10:19:35.759Z,19296.00
2018-06-02T10:20:35.580Z,16832.00
2018-06-02T10:21:35.613Z,14232.00
2018-06-02T10:22:35.431Z,14780.00
2018-06-02T10:23:35.404Z,14056.00
2018-06-02T10:24:35.287Z,12368.00
2018-06-02T10:25:35.210Z,10824.00
2018-06-02T10:26:35.136Z,9256.00
2018-06-02T10:29:17.003Z,9424.00
2018-06-02T10:30:16.992Z,11108.00
2018-06-02T10:31:16.830Z,11532.00
2018-06-02T10:32:16.793Z,11932.00
2018-06-02T10:33:16.674Z,11764.00
2018-06-02T10:34:17.744Z,13392.00
2018-06-02T10:35:16.529Z,15844.00
2018-06-02T10:37:58.481Z,19328.00
2018-06-02T10:38:58.512Z,17792.00
2018-06-02T10:39:58.340Z,14856.00
2018-06-02T10:40:58.404Z,13044.00
2018-06-02T10:41:58.187Z,12820.00
2018-06-02T10:42:58.244Z,13324.00
2018-06-02T10:43:58.036Z,16068.00
2018-06-02T10:45:01.261Z,22432.00
2018-06-02T10:45:57.884Z,26688.00
2018-06-02T10:46:57.835Z,19872.00
2018-06-02T10:47:57.729Z,15696.00
2018-06-02T10:48:57.766Z,15288.00
2018-06-02T10:49:57.617Z,16800.00
2018-06-02T10:50:57.582Z,17504.00
2018-06-02T10:51:57.449Z,19360.00
2018-06-02T10:52:57.368Z,17056.00
2018-06-02T10:53:57.288Z,17952.00
2018-06-02T10:54:57.235Z,17504.00
2018-06-02T10:55:57.141Z,17216.00
2018-06-02T10:56:57.078Z,16092.00
2018-06-02T10:57:56.995Z,14716.00
2018-06-02T10:58:56.925Z,13156.00
2018-06-02T10:59:56.892Z,12020.00
2018-06-02T11:00:56.762Z,11128.00
2018-06-02T11:01:56.694Z,10372.00
2018-06-02T11:02:56.628Z,9292.00
2018-06-02T11:03:56.540Z,7768.00
2018-06-02T11:04:56.581Z,6868.00
2018-06-02T11:05:56.403Z,7360.00
2018-06-02T11:08:38.483Z,12568.00
2018-06-02T11:09:38.440Z,12568.00
2018-06-02T11:10:38.371Z,12540.00
2018-06-02T11:11:38.364Z,13888.00
2018-06-02T11:12:38.205Z,15100.00
2018-06-02T11:15:20.505Z,16960.00
2018-06-02T11:16:20.419Z,16832.00
2018-06-02T11:17:20.352Z,16672.00
2018-06-02T11:20:02.504Z,13404.00
2018-06-02T11:21:02.484Z,12820.00
2018-06-02T11:22:02.371Z,12812.00
2018-06-02T11:24:44.499Z,9768.00
2018-06-02T11:25:44.446Z,8144.00
2018-06-02T11:26:44.364Z,7480.00
2018-06-02T11:29:26.507Z,10060.00
2018-06-02T11:30:26.548Z,10556.00
2018-06-02T11:31:26.349Z,10860.00
2018-06-02T11:34:08.505Z,12588.00
2018-06-02T11:35:08.511Z,13672.00
2018-06-02T11:36:08.375Z,15064.00
2018-06-02T11:37:08.283Z,16296.00
2018-06-02T11:38:08.203Z,17728.00
2018-06-02T11:39:08.235Z,19040.00
2018-06-02T11:40:08.058Z,18432.00
2018-06-02T11:41:08.082Z,17824.00
2018-06-02T11:42:07.911Z,17888.00
2018-06-02T11:43:07.948Z,18272.00
2018-06-02T11:44:07.755Z,19072.00
2018-06-02T11:45:07.681Z,19392.00
2018-06-02T11:46:07.618Z,20320.00
2018-06-02T11:47:07.530Z,20448.00
2018-06-02T11:48:07.473Z,20960.00
2018-06-02T11:49:07.396Z,20704.00
2018-06-02T11:50:07.314Z,21568.00
2018-06-02T11:51:07.260Z,23808.00
2018-06-02T11:52:07.161Z,22880.00
2018-06-02T11:53:07.094Z,22752.00
2018-06-02T11:54:07.013Z,22688.00
2018-06-02T11:56:49.028Z,23904.00
2018-06-02T11:59:31.008Z,24736.00
2018-06-02T12:00:30.955Z,24256.00
2018-06-02T12:01:30.893Z,26464.00
2018-06-02T12:04:13.017Z,26144.00
2018-06-02T12:05:12.940Z,24192.00
2018-06-02T12:06:12.974Z,20256.00
2018-06-02T12:07:12.813Z,17760.00
2018-06-02T12:08:12.730Z,14520.00
2018-06-02T12:09:12.656Z,16152.00
2018-06-02T12:10:12.575Z,15840.00
2018-06-02T12:11:12.519Z,12528.00
2018-06-02T12:12:12.645Z,14244.00
2018-06-02T12:13:14.137Z,15540.00
2018-06-02T12:14:12.301Z,15252.00
2018-06-02T12:15:12.521Z,15124.00
2018-06-02T12:16:14.043Z,14232.00
2018-06-02T12:17:13.086Z,12444.00
2018-06-02T12:18:12.006Z,12800.00
2018-06-02T12:19:11.920Z,10320.00
2018-06-02T12:20:11.841Z,10108.00
2018-06-02T12:21:11.784Z,12136.00
2018-06-02T12:22:11.727Z,14292.00
2018-06-02T12:24:53.517Z,13596.00
2018-06-02T12:25:53.452Z,13524.00
2018-06-02T12:26:53.395Z,12428.00
2018-06-02T12:27:53.309Z,11028.00
2018-06-02T12:28:53.225Z,10016.00
2018-06-02T12:29:53.219Z,9040.00
2018-06-02T12:30:53.074Z,7832.00
2018-06-02T12:31:58.263Z,6728.00
2018-06-02T12:32:52.936Z,6080.00
2018-06-02T12:33:52.922Z,5656.00
2018-06-02T12:34:52.782Z,5288.00
2018-06-02T12:35:52.833Z,4924.00
2018-06-02T12:36:52.680Z,4680.00
2018-06-02T12:37:53.709Z,4772.00
2018-06-02T12:38:52.487Z,4872.00
2018-06-02T12:39:52.456Z,5044.00
2018-06-02T12:40:52.377Z,5488.00
2018-06-02T12:41:52.364Z,6160.00
2018-06-02T12:42:52.207Z,7080.00
2018-06-02T12:43:52.168Z,8072.00
2018-06-02T12:44:52.040Z,9484.00
2018-06-02T12:45:52.080Z,11164.00
2018-06-02T12:46:51.929Z,13120.00
2018-06-02T12:47:51.853Z,15320.00
2018-06-02T12:48:51.752Z,17408.00
2018-06-02T12:49:51.721Z,17056.00
2018-06-02T12:50:51.605Z,15496.00
2018-06-02T12:51:51.550Z,15040.00
2018-06-02T12:52:51.474Z,15452.00
2018-06-02T12:53:51.434Z,14580.00
2018-06-02T12:54:51.304Z,13100.00
2018-06-02T12:55:51.332Z,12636.00
2018-06-02T12:56:51.148Z,12928.00
2018-06-02T12:57:51.185Z,13548.00
2018-06-02T12:58:51.004Z,14460.00
2018-06-02T12:59:51.049Z,15164.00
2018-06-02T13:00:50.864Z,15088.00
2018-06-02T13:01:50.873Z,14736.00
2018-06-02T13:02:50.727Z,14764.00
2018-06-02T13:03:53.799Z,14572.00
2018-06-02T13:04:50.563Z,14732.00
2018-06-02T13:05:50.582Z,15032.00
2018-06-02T13:06:50.412Z,15448.00
2018-06-02T13:07:50.397Z,15784.00
2018-06-02T13:08:50.296Z,15960.00
2018-06-02T13:09:50.317Z,16092.00
2018-06-02T13:10:50.140Z,16576.00
2018-06-02T13:11:50.106Z,16864.00
2018-06-02T13:12:49.987Z,17216.00
2018-06-02T13:13:49.948Z,17568.00
2018-06-02T13:14:49.843Z,17792.00
2018-06-02T13:15:49.837Z,18272.00
2018-06-02T13:16:49.688Z,18560.00
2018-06-02T13:19:31.567Z,18208.00
2018-06-02T13:22:13.536Z,18624.00
2018-06-02T13:23:13.530Z,18336.00
2018-06-02T13:24:13.431Z,17280.00
2018-06-02T13:25:13.442Z,15372.00
2018-06-02T13:26:13.251Z,14352.00
2018-06-02T13:27:13.260Z,14520.00
2018-06-02T13:28:13.107Z,14912.00
2018-06-02T13:29:13.057Z,14676.00
2018-06-02T13:30:12.957Z,14640.00
2018-06-02T13:31:12.968Z,14684.00
2018-06-02T13:32:12.810Z,14672.00
2018-06-02T13:33:12.757Z,15260.00
2018-06-02T13:34:12.684Z,15756.00
2018-06-02T13:35:12.685Z,16704.00
2018-06-02T13:36:12.514Z,16992.00
2018-06-02T13:37:12.500Z,17184.00
2018-06-02T13:38:12.375Z,16124.00
2018-06-02T13:39:15.825Z,15224.00
2018-06-02T13:40:12.233Z,14220.00
2018-06-02T13:41:12.223Z,13660.00
2018-06-02T13:42:12.080Z,13416.00
2018-06-02T13:44:57.186Z,14684.00
2018-06-02T13:45:54.013Z,14760.00
2018-06-02T13:46:53.905Z,14368.00
2018-06-02T13:47:53.946Z,13868.00
2018-06-02T13:48:53.780Z,12444.00
2018-06-02T13:49:53.820Z,12100.00
2018-06-02T13:50:53.600Z,12320.00
2018-06-02T13:51:53.650Z,12264.00
2018-06-02T13:52:53.471Z,12364.00
2018-06-02T13:55:35.627Z,12804.00
2018-06-02T13:58:17.981Z,11852.00
2018-06-02T13:59:17.553Z,11604.00
2018-06-02T14:00:17.443Z,11304.00
2018-06-02T14:01:17.371Z,11624.00
2018-06-02T14:02:17.293Z,11944.00
2018-06-02T14:03:17.239Z,12124.00
2018-06-02T14:04:17.114Z,12428.00
2018-06-02T14:05:17.108Z,13172.00
2018-06-02T14:06:16.959Z,13732.00
2018-06-02T14:07:16.990Z,13584.00
2018-06-02T14:08:16.848Z,13172.00
2018-06-02T14:09:16.845Z,12704.00
2018-06-02T14:10:16.727Z,11796.00
2018-06-02T14:11:16.720Z,10312.00
2018-06-02T14:12:16.622Z,9596.00
2018-06-02T14:13:16.599Z,9508.00